createdAt,value
2023-02-18T00:00:08.489Z,11.23
2023-02-18T00:01:09.348Z,11.25
2023-02-18T00:02:10.243Z,11.26
2023-02-18T00:03:11.092Z,11.23
2023-02-18T00:04:11.917Z,11.26
2023-02-18T00:05:12.753Z,11.22
2023-02-18T00:06:13.621Z,11.22
2023-02-18T00:07:14.468Z,11.27
2023-02-18T00:08:15.333Z,11.23
2023-02-18T00:09:16.224Z,11.25
2023-02-18T00:10:17.079Z,11.25
2023-02-18T00:11:17.970Z,11.23
2023-02-18T00:12:18.817Z,11.23
2023-02-18T00:13:19.688Z,11.23
2023-02-18T00:14:20.471Z,11.26
2023-02-18T00:15:21.323Z,11.27
2023-02-18T00:16:22.196Z,11.26
2023-02-18T00:17:23.052Z,11.27
2023-02-18T00:18:23.896Z,11.27
2023-02-18T00:19:24.751Z,11.27
2023-02-18T00:20:25.602Z,11.30
2023-02-18T00:21:26.467Z,11.30
2023-02-18T00:22:27.318Z,11.26
2023-02-18T00:23:28.196Z,11.25
2023-02-18T00:24:29.016Z,11.30
2023-02-18T00:25:29.883Z,11.26
2023-02-18T00:26:31.226Z,11.26
2023-02-18T00:27:31.588Z,11.26
2023-02-18T00:28:32.463Z,11.27
2023-02-18T00:29:33.240Z,11.26
2023-02-18T00:30:34.125Z,11.27
2023-02-18T00:31:35.320Z,11.26
2023-02-18T00:32:35.690Z,11.30
2023-02-18T00:33:36.537Z,11.27
2023-02-18T00:34:37.378Z,11.31
2023-02-18T00:35:38.243Z,11.25
2023-02-18T00:36:39.123Z,11.30
2023-02-18T00:37:39.956Z,11.30
2023-02-18T00:38:40.832Z,11.31
2023-02-18T00:39:41.667Z,11.31
2023-02-18T00:40:42.516Z,11.33
2023-02-18T00:41:43.720Z,11.34
2023-02-18T00:42:44.074Z,11.34
2023-02-18T00:43:44.950Z,11.34
2023-02-18T00:44:45.725Z,11.30
2023-02-18T00:45:46.585Z,11.33
2023-02-18T00:46:47.802Z,11.33
2023-02-18T00:47:48.094Z,11.31
2023-02-18T00:48:48.969Z,11.33
2023-02-18T00:49:49.801Z,11.31
2023-02-18T00:50:50.705Z,11.31
2023-02-18T00:51:51.720Z,11.31
2023-02-18T00:52:52.075Z,11.30
2023-02-18T00:53:52.941Z,11.30
2023-02-18T00:54:53.775Z,11.30
2023-02-18T00:55:54.666Z,11.33
2023-02-18T00:56:55.723Z,11.30
2023-02-18T00:57:56.075Z,11.31
2023-02-18T00:58:56.944Z,11.30
2023-02-18T00:59:57.719Z,11.31
2023-02-18T01:00:58.576Z,11.27
2023-02-18T01:01:59.724Z,11.33
2023-02-18T01:03:00.088Z,11.30
2023-02-18T01:04:00.933Z,11.30
2023-02-18T01:05:01.814Z,11.33
2023-02-18T01:06:02.638Z,11.30
2023-02-18T01:07:03.503Z,11.31
2023-02-18T01:08:04.347Z,11.30
2023-02-18T01:09:05.230Z,11.33
2023-02-18T01:10:06.063Z,11.30
2023-02-18T01:11:06.916Z,11.33
2023-02-18T01:12:08.313Z,11.27
2023-02-18T01:13:08.662Z,11.31
2023-02-18T01:14:09.537Z,11.31
2023-02-18T01:15:10.339Z,11.30
2023-02-18T01:16:11.604Z,11.33
2023-02-18T01:17:12.104Z,11.31
2023-02-18T01:18:12.945Z,11.31
2023-02-18T01:19:13.797Z,11.30
2023-02-18T01:20:14.658Z,11.30
2023-02-18T01:21:15.511Z,11.25
2023-02-18T01:22:16.370Z,11.30
2023-02-18T01:23:17.226Z,11.26
2023-02-18T01:24:18.110Z,11.25
2023-02-18T01:25:18.931Z,11.20
2023-02-18T01:26:19.779Z,11.22
2023-02-18T01:27:20.665Z,11.19
2023-02-18T01:28:21.497Z,11.19
2023-02-18T01:29:22.366Z,11.19
2023-02-18T01:30:23.566Z,11.19
2023-02-18T01:31:24.005Z,11.18
2023-02-18T01:32:25.223Z,11.19
2023-02-18T01:33:25.577Z,11.19
2023-02-18T01:34:26.433Z,11.18
2023-02-18T01:35:27.285Z,11.16
2023-02-18T01:36:28.132Z,11.15
2023-02-18T01:37:28.992Z,11.12
2023-02-18T01:38:29.854Z,11.10
2023-02-18T01:39:30.746Z,11.10
2023-02-18T01:40:31.637Z,11.12
2023-02-18T01:41:32.486Z,11.08
2023-02-18T01:42:33.717Z,11.08
2023-02-18T01:43:34.067Z,11.10
2023-02-18T01:44:34.965Z,11.15
2023-02-18T01:45:35.742Z,11.10
2023-02-18T01:46:36.668Z,11.12
2023-02-18T01:47:37.488Z,11.10
2023-02-18T01:48:39.676Z,11.15
2023-02-18T01:49:39.088Z,11.10
2023-02-18T01:50:39.940Z,11.12
2023-02-18T01:51:40.794Z,11.10
2023-02-18T01:52:41.716Z,11.12
2023-02-18T01:53:42.572Z,11.08
2023-02-18T01:54:43.444Z,11.12
2023-02-18T01:55:44.276Z,11.12
2023-02-18T01:56:45.126Z,11.10
2023-02-18T01:57:45.987Z,11.12
2023-02-18T01:58:46.838Z,11.12
2023-02-18T01:59:47.707Z,11.16
2023-02-18T02:00:48.550Z,11.18
2023-02-18T02:01:49.427Z,11.16
2023-02-18T02:02:50.714Z,11.16
2023-02-18T02:03:51.065Z,11.19
2023-02-18T02:04:51.919Z,11.18
2023-02-18T02:05:52.773Z,11.19
2023-02-18T02:06:53.620Z,11.18
2023-02-18T02:07:54.478Z,11.20
2023-02-18T02:08:55.331Z,11.18
2023-02-18T02:09:56.206Z,11.19
2023-02-18T02:10:57.044Z,11.20
2023-02-18T02:11:57.891Z,11.22
2023-02-18T02:12:58.774Z,11.22
2023-02-18T02:13:59.625Z,11.20
2023-02-18T02:15:00.514Z,11.22
2023-02-18T02:16:01.382Z,11.20
2023-02-18T02:17:02.172Z,11.19
2023-02-18T02:18:03.033Z,11.19
2023-02-18T02:19:03.884Z,11.19
2023-02-18T02:20:04.765Z,11.19
2023-02-18T02:21:05.594Z,11.22
2023-02-18T02:22:06.455Z,11.20
2023-02-18T02:23:07.714Z,11.25
2023-02-18T02:24:08.065Z,11.22
2023-02-18T02:25:08.950Z,11.20
2023-02-18T02:26:10.024Z,11.20
2023-02-18T02:27:10.378Z,11.22
2023-02-18T02:28:11.716Z,11.19
2023-02-18T02:29:12.071Z,11.26
2023-02-18T02:30:13.062Z,11.23
2023-02-18T02:31:13.978Z,11.23
2023-02-18T02:32:14.829Z,11.26
2023-02-18T02:33:15.710Z,11.25
2023-02-18T02:34:16.567Z,11.25
2023-02-18T02:35:17.431Z,11.26
2023-02-18T02:36:18.281Z,11.26
2023-02-18T02:37:19.134Z,11.25
2023-02-18T02:38:19.999Z,11.23
2023-02-18T02:39:20.849Z,11.22
2023-02-18T02:40:21.732Z,11.23
2023-02-18T02:41:22.556Z,11.23
2023-02-18T02:42:23.407Z,11.22
2023-02-18T02:43:24.710Z,11.25
2023-02-18T02:44:25.064Z,11.27
2023-02-18T02:45:25.984Z,11.25
2023-02-18T02:46:26.769Z,11.25
2023-02-18T02:47:27.627Z,11.30
2023-02-18T02:48:28.509Z,11.27
2023-02-18T02:49:29.348Z,11.33
2023-02-18T02:50:30.203Z,11.30
2023-02-18T02:51:31.066Z,11.31
2023-02-18T02:52:31.923Z,11.31
2023-02-18T02:53:32.786Z,11.33
2023-02-18T02:54:33.676Z,11.33
2023-02-18T02:55:34.508Z,11.33
2023-02-18T02:56:35.340Z,11.35
2023-02-18T02:57:36.189Z,11.34
2023-02-18T02:58:37.049Z,11.33
2023-02-18T02:59:37.908Z,11.35
2023-02-18T03:00:38.775Z,11.37
2023-02-18T03:01:39.601Z,11.34
2023-02-18T03:02:40.497Z,11.37
2023-02-18T03:03:41.324Z,11.35
2023-02-18T03:04:42.178Z,11.35
2023-02-18T03:05:43.039Z,11.35
2023-02-18T03:06:43.884Z,11.37
2023-02-18T03:07:44.741Z,11.37
2023-02-18T03:08:45.601Z,11.37
2023-02-18T03:09:46.451Z,11.38
2023-02-18T03:10:47.321Z,11.37
2023-02-18T03:11:48.160Z,11.41
2023-02-18T03:12:49.007Z,11.37
2023-02-18T03:13:49.894Z,11.37
2023-02-18T03:14:50.745Z,11.38
2023-02-18T03:15:51.624Z,11.35
2023-02-18T03:16:52.490Z,11.35
2023-02-18T03:17:53.299Z,11.33
2023-02-18T03:18:54.169Z,11.34
2023-02-18T03:19:55.019Z,11.37
2023-02-18T03:20:55.875Z,11.34
2023-02-18T03:21:56.723Z,11.35
2023-02-18T03:22:57.577Z,11.33
2023-02-18T03:23:58.440Z,11.30
2023-02-18T03:24:59.301Z,11.31
2023-02-18T03:26:00.172Z,11.26
2023-02-18T03:27:01.011Z,11.25
2023-02-18T03:28:01.860Z,11.23
2023-02-18T03:29:02.729Z,11.23
2023-02-18T03:30:03.741Z,11.23
2023-02-18T03:31:04.260Z,11.20
2023-02-18T03:32:05.185Z,11.16
2023-02-18T03:33:05.981Z,11.15
2023-02-18T03:34:07.214Z,11.16
2023-02-18T03:35:07.565Z,11.12
2023-02-18T03:36:08.823Z,11.12
2023-02-18T03:37:09.320Z,11.12
2023-02-18T03:38:10.170Z,11.05
2023-02-18T03:39:11.046Z,11.04
2023-02-18T03:40:11.908Z,11.07
2023-02-18T03:41:12.772Z,11.02
2023-02-18T03:42:13.623Z,11.07
2023-02-18T03:43:14.469Z,11.00
2023-02-18T03:44:15.715Z,11.01
2023-02-18T03:45:16.089Z,11.01
2023-02-18T03:46:16.976Z,11.02
2023-02-18T03:47:17.787Z,11.02
2023-02-18T03:48:18.639Z,11.07
2023-02-18T03:49:19.510Z,11.02
2023-02-18T03:50:20.377Z,11.05
2023-02-18T03:51:21.225Z,11.07
2023-02-18T03:52:22.076Z,11.04
2023-02-18T03:53:22.935Z,11.05
2023-02-18T03:54:24.217Z,11.05
2023-02-18T03:55:24.566Z,11.02
2023-02-18T03:56:25.444Z,11.04
2023-02-18T03:57:26.287Z,11.04
2023-02-18T03:58:27.141Z,11.04
2023-02-18T03:59:28.004Z,11.04
2023-02-18T04:00:28.867Z,11.04
2023-02-18T04:01:29.807Z,11.04
2023-02-18T04:02:30.584Z,11.02
2023-02-18T04:03:31.451Z,11.05
2023-02-18T04:04:32.843Z,11.05
2023-02-18T04:05:33.188Z,11.00
2023-02-18T04:06:34.033Z,11.04
2023-02-18T04:07:34.894Z,11.02
2023-02-18T04:08:35.751Z,11.02
2023-02-18T04:09:36.707Z,11.05
2023-02-18T04:10:37.556Z,11.07
2023-02-18T04:11:38.441Z,11.04
2023-02-18T04:12:39.263Z,11.07
2023-02-18T04:13:40.116Z,11.07
2023-02-18T04:14:41.223Z,11.04
2023-02-18T04:15:41.582Z,11.05
2023-02-18T04:16:42.588Z,11.04
2023-02-18T04:17:42.921Z,11.10
2023-02-18T04:18:43.781Z,11.05
2023-02-18T04:19:44.646Z,11.05
2023-02-18T04:20:45.500Z,11.05
2023-02-18T04:21:46.359Z,11.05
2023-02-18T04:22:47.222Z,11.07
2023-02-18T04:23:48.075Z,11.05
2023-02-18T04:24:49.209Z,11.08
2023-02-18T04:25:49.574Z,11.07
2023-02-18T04:26:50.544Z,11.05
2023-02-18T04:27:51.320Z,11.08
2023-02-18T04:28:52.170Z,11.08
2023-02-18T04:29:53.202Z,11.07
2023-02-18T04:30:53.644Z,11.07
2023-02-18T04:31:54.590Z,11.07
2023-02-18T04:32:55.390Z,11.04
2023-02-18T04:33:56.242Z,11.04
2023-02-18T04:34:57.116Z,11.02
2023-02-18T04:35:57.953Z,11.02
2023-02-18T04:36:58.818Z,11.00
2023-02-18T04:37:59.676Z,11.00
2023-02-18T04:39:00.537Z,11.01
2023-02-18T04:40:01.705Z,11.01
2023-02-18T04:41:02.056Z,10.98
2023-02-18T04:42:02.945Z,11.00
2023-02-18T04:43:03.807Z,11.02
2023-02-18T04:44:04.663Z,11.05
2023-02-18T04:45:05.706Z,11.02
2023-02-18T04:46:06.466Z,11.04
2023-02-18T04:47:06.926Z,11.05
2023-02-18T04:48:07.742Z,11.07
2023-02-18T04:49:08.598Z,11.05
2023-02-18T04:50:09.715Z,11.08
2023-02-18T04:51:10.068Z,11.08
2023-02-18T04:52:10.922Z,11.08
2023-02-18T04:53:11.787Z,11.13
2023-02-18T04:54:12.636Z,11.10
2023-02-18T04:55:13.700Z,11.07
2023-02-18T04:56:14.051Z,11.12
2023-02-18T04:57:14.924Z,11.12
2023-02-18T04:58:15.762Z,11.08
2023-02-18T04:59:16.616Z,11.08
2023-02-18T05:00:17.478Z,11.12
2023-02-18T05:01:18.365Z,11.08
2023-02-18T05:02:19.222Z,11.08
2023-02-18T05:03:20.038Z,11.05
2023-02-18T05:04:20.903Z,11.05
2023-02-18T05:05:21.752Z,11.02
2023-02-18T05:06:22.604Z,11.02
2023-02-18T05:07:23.454Z,11.02
2023-02-18T05:08:24.309Z,11.01
2023-02-18T05:09:25.161Z,10.98
2023-02-18T05:10:26.028Z,10.97
2023-02-18T05:11:26.884Z,10.97
2023-02-18T05:12:27.747Z,10.95
2023-02-18T05:13:28.590Z,10.95
2023-02-18T05:14:29.433Z,10.94
2023-02-18T05:15:30.357Z,10.90
2023-02-18T05:16:31.159Z,10.94
2023-02-18T05:17:32.037Z,10.92
2023-02-18T05:18:32.817Z,10.90
2023-02-18T05:19:33.658Z,10.90
2023-02-18T05:20:34.521Z,10.92
2023-02-18T05:21:35.375Z,10.89
2023-02-18T05:22:36.222Z,10.87
2023-02-18T05:23:37.075Z,10.84
2023-02-18T05:24:37.924Z,10.87
2023-02-18T05:25:38.788Z,10.92
2023-02-18T05:26:39.638Z,10.86
2023-02-18T05:27:40.509Z,10.87
2023-02-18T05:28:41.347Z,10.84
2023-02-18T05:29:42.199Z,10.86
2023-02-18T05:30:43.114Z,10.84
2023-02-18T05:31:44.067Z,10.83
2023-02-18T05:32:44.470Z,10.83
2023-02-18T05:33:45.275Z,10.84
2023-02-18T05:34:46.147Z,10.83
2023-02-18T05:35:47.005Z,10.84
2023-02-18T05:36:47.859Z,10.83
2023-02-18T05:37:48.713Z,10.82
2023-02-18T05:38:49.562Z,10.84
2023-02-18T05:39:50.425Z,10.84
2023-02-18T05:40:51.279Z,10.82
2023-02-18T05:41:52.138Z,10.83
2023-02-18T05:42:53.005Z,10.83
2023-02-18T05:43:53.847Z,10.77
2023-02-18T05:44:54.703Z,10.77
2023-02-18T05:45:55.703Z,10.77
2023-02-18T05:46:56.072Z,10.79
2023-02-18T05:47:56.942Z,10.80
2023-02-18T05:48:57.721Z,10.79
2023-02-18T05:49:58.584Z,10.77
2023-02-18T05:50:59.715Z,10.77
2023-02-18T05:52:00.490Z,10.77
2023-02-18T05:53:00.860Z,10.75
2023-02-18T05:54:01.697Z,10.77
2023-02-18T05:55:02.550Z,10.75
2023-02-18T05:56:03.412Z,10.72
2023-02-18T05:57:04.312Z,10.76
2023-02-18T05:58:05.141Z,10.77
2023-02-18T05:59:05.992Z,10.79
2023-02-18T06:00:06.861Z,10.79
2023-02-18T06:01:07.708Z,10.76
2023-02-18T06:02:08.565Z,10.75
2023-02-18T06:03:09.433Z,10.71
2023-02-18T06:04:10.217Z,10.72
2023-02-18T06:05:11.069Z,10.72
2023-02-18T06:06:12.474Z,10.75
2023-02-18T06:07:12.846Z,10.76
2023-02-18T06:08:13.708Z,10.76
2023-02-18T06:09:14.560Z,10.76
2023-02-18T06:10:15.422Z,10.75
2023-02-18T06:11:16.284Z,10.75
2023-02-18T06:12:17.134Z,10.72
2023-02-18T06:13:18.005Z,10.75
2023-02-18T06:14:18.847Z,10.75
2023-02-18T06:15:19.712Z,10.76
2023-02-18T06:16:20.633Z,10.77
2023-02-18T06:17:21.439Z,10.77
2023-02-18T06:18:22.399Z,10.79
2023-02-18T06:19:23.191Z,10.77
2023-02-18T06:20:24.038Z,10.80
2023-02-18T06:21:25.216Z,10.77
2023-02-18T06:22:25.563Z,10.76
2023-02-18T06:23:26.417Z,10.75
2023-02-18T06:24:27.271Z,10.79
2023-02-18T06:25:28.119Z,10.76
2023-02-18T06:26:28.984Z,10.76
2023-02-18T06:27:29.834Z,10.79
2023-02-18T06:28:30.718Z,10.75
2023-02-18T06:29:31.551Z,10.79
2023-02-18T06:30:32.466Z,10.75
2023-02-18T06:31:33.886Z,10.71
2023-02-18T06:32:34.221Z,10.72
2023-02-18T06:33:35.091Z,10.75
2023-02-18T06:34:35.945Z,10.75
2023-02-18T06:35:36.798Z,10.72
2023-02-18T06:36:37.697Z,10.75
2023-02-18T06:37:38.562Z,10.71
2023-02-18T06:38:39.434Z,10.72
2023-02-18T06:39:40.280Z,10.71
2023-02-18T06:40:41.121Z,10.72
2023-02-18T06:41:42.199Z,10.71
2023-02-18T06:42:42.550Z,10.71
2023-02-18T06:43:43.436Z,10.71
2023-02-18T06:44:44.255Z,10.71
2023-02-18T06:45:45.112Z,10.71
2023-02-18T06:46:46.242Z,10.72
2023-02-18T06:47:46.551Z,10.75
2023-02-18T06:48:47.500Z,10.75
2023-02-18T06:49:48.288Z,10.71
2023-02-18T06:50:49.146Z,10.75
2023-02-18T06:51:50.006Z,10.76
2023-02-18T06:52:50.859Z,10.75
2023-02-18T06:53:51.723Z,10.75
2023-02-18T06:54:52.584Z,10.72
2023-02-18T06:55:53.435Z,10.71
2023-02-18T06:56:54.290Z,10.71
2023-02-18T06:57:55.145Z,10.75
2023-02-18T06:58:56.018Z,10.76
2023-02-18T06:59:56.891Z,10.72
2023-02-18T07:00:57.802Z,10.71
2023-02-18T07:01:58.628Z,10.77
2023-02-18T07:02:59.453Z,10.72
2023-02-18T07:04:00.380Z,10.72
2023-02-18T07:05:01.216Z,10.72
2023-02-18T07:06:02.069Z,10.71
2023-02-18T07:07:03.194Z,10.71
2023-02-18T07:08:03.547Z,10.71
2023-02-18T07:09:04.422Z,10.72
2023-02-18T07:10:05.272Z,10.72
2023-02-18T07:11:06.143Z,10.71
2023-02-18T07:12:07.003Z,10.69
2023-02-18T07:13:07.860Z,10.67
2023-02-18T07:14:08.730Z,10.68
2023-02-18T07:15:09.559Z,10.68
2023-02-18T07:16:10.863Z,10.72
2023-02-18T07:17:11.283Z,10.71
2023-02-18T07:18:12.165Z,10.68
2023-02-18T07:19:14.849Z,10.71
2023-02-18T07:20:13.737Z,10.69
2023-02-18T07:21:14.587Z,10.71
2023-02-18T07:22:15.452Z,10.71
2023-02-18T07:23:16.304Z,10.69
2023-02-18T07:24:17.159Z,10.75
2023-02-18T07:25:18.011Z,10.71
2023-02-18T07:26:18.862Z,10.71
2023-02-18T07:27:19.723Z,10.75
2023-02-18T07:28:20.681Z,10.75
2023-02-18T07:29:21.548Z,10.75
2023-02-18T07:30:22.476Z,10.72
2023-02-18T07:31:23.360Z,10.72
2023-02-18T07:32:24.196Z,10.72
2023-02-18T07:33:25.044Z,10.75
2023-02-18T07:34:25.913Z,10.76
2023-02-18T07:35:26.728Z,10.76
2023-02-18T07:36:27.565Z,10.71
2023-02-18T07:37:28.692Z,10.71
2023-02-18T07:38:29.065Z,10.72
2023-02-18T07:39:29.910Z,10.69
2023-02-18T07:40:30.765Z,10.71
2023-02-18T07:41:31.622Z,10.72
2023-02-18T07:42:32.694Z,10.71
2023-02-18T07:43:33.055Z,10.68
2023-02-18T07:44:33.934Z,10.71
2023-02-18T07:45:34.821Z,10.68
2023-02-18T07:46:35.644Z,10.71
2023-02-18T07:47:36.690Z,10.68
2023-02-18T07:48:37.042Z,10.67
2023-02-18T07:49:37.913Z,10.67
2023-02-18T07:50:38.686Z,10.67
2023-02-18T07:51:39.544Z,10.68
2023-02-18T07:52:40.404Z,10.67
2023-02-18T07:53:41.269Z,10.65
2023-02-18T07:54:42.145Z,10.65
2023-02-18T07:55:43.015Z,10.67
2023-02-18T07:56:43.852Z,10.64
2023-02-18T07:57:44.715Z,10.68
2023-02-18T07:58:45.568Z,10.68
2023-02-18T07:59:46.473Z,10.68
2023-02-18T08:00:47.305Z,10.68
2023-02-18T08:01:48.195Z,10.71
2023-02-18T08:02:49.191Z,10.69
2023-02-18T08:03:49.582Z,10.69
2023-02-18T08:04:50.423Z,10.72
2023-02-18T08:05:51.204Z,10.75
2023-02-18T08:06:52.054Z,10.75
2023-02-18T08:07:52.919Z,10.79
2023-02-18T08:08:53.773Z,10.76
2023-02-18T08:09:54.625Z,10.80
2023-02-18T08:10:55.490Z,10.79
2023-02-18T08:11:56.346Z,10.82
2023-02-18T08:12:57.691Z,10.82
2023-02-18T08:13:58.046Z,10.83
2023-02-18T08:14:58.915Z,10.82
2023-02-18T08:15:59.753Z,10.79
2023-02-18T08:17:00.605Z,10.76
2023-02-18T08:18:02.047Z,10.76
2023-02-18T08:19:02.384Z,10.76
2023-02-18T08:20:03.237Z,10.76
2023-02-18T08:21:04.015Z,10.76
2023-02-18T08:22:04.886Z,10.76
2023-02-18T08:23:06.231Z,10.75
2023-02-18T08:24:06.559Z,10.75
2023-02-18T08:25:07.412Z,10.71
2023-02-18T08:26:08.529Z,10.72
2023-02-18T08:27:09.024Z,10.82
2023-02-18T08:28:09.888Z,10.83
2023-02-18T08:29:10.738Z,10.84
2023-02-18T08:30:11.681Z,10.82
2023-02-18T08:31:12.641Z,10.86
2023-02-18T08:32:13.001Z,10.87
2023-02-18T08:33:13.850Z,10.82
2023-02-18T08:34:14.702Z,10.86
2023-02-18T08:35:15.579Z,10.87
2023-02-18T08:36:16.363Z,10.95
2023-02-18T08:37:17.213Z,10.95
2023-02-18T08:38:18.072Z,10.97
2023-02-18T08:39:18.930Z,11.02
2023-02-18T08:40:19.795Z,11.02
2023-02-18T08:41:20.657Z,11.04
2023-02-18T08:42:21.526Z,11.08
2023-02-18T08:43:22.695Z,11.15
2023-02-18T08:44:23.046Z,11.08
2023-02-18T08:45:23.919Z,11.10
2023-02-18T08:46:32.913Z,11.12
2023-02-18T08:48:18.460Z,11.05
2023-02-18T08:48:27.691Z,10.98
2023-02-18T08:49:27.044Z,11.00
2023-02-18T08:50:27.940Z,11.01
2023-02-18T08:51:28.726Z,10.98
2023-02-18T08:52:29.582Z,11.02
2023-02-18T08:53:30.447Z,11.01
2023-02-18T08:54:31.302Z,11.01
2023-02-18T08:55:32.155Z,11.07
2023-02-18T08:56:33.016Z,11.00
2023-02-18T08:57:33.865Z,11.01
2023-02-18T08:58:34.725Z,10.90
2023-02-18T08:59:35.583Z,10.82
2023-02-18T09:00:36.461Z,10.82
2023-02-18T09:01:37.350Z,10.80
2023-02-18T09:02:38.140Z,10.76
2023-02-18T09:03:39.012Z,10.72
2023-02-18T09:04:39.859Z,10.69
2023-02-18T09:05:40.731Z,10.69
2023-02-18T09:06:41.517Z,10.62
2023-02-18T09:07:42.371Z,10.62
2023-02-18T09:08:43.694Z,10.62
2023-02-18T09:09:44.047Z,10.58
2023-02-18T09:10:46.350Z,10.57
2023-02-18T09:11:45.680Z,10.61
2023-02-18T09:12:46.547Z,10.55
2023-02-18T09:13:47.391Z,10.55
2023-02-18T09:14:48.246Z,10.51
2023-02-18T09:15:49.162Z,10.51
2023-02-18T09:16:49.962Z,10.49
2023-02-18T09:17:50.819Z,10.51
2023-02-18T09:18:52.268Z,10.48
2023-02-18T09:19:52.605Z,10.43
2023-02-18T09:20:53.484Z,10.46
2023-02-18T09:21:54.269Z,10.49
2023-02-18T09:22:55.120Z,10.49
2023-02-18T09:23:55.981Z,10.49
2023-02-18T09:24:56.834Z,10.51
2023-02-18T09:25:57.689Z,10.55
2023-02-18T09:26:58.537Z,10.51
2023-02-18T09:27:59.395Z,10.55
2023-02-18T09:29:00.249Z,10.55
2023-02-18T09:30:01.155Z,10.55
2023-02-18T09:31:02.108Z,10.51
2023-02-18T09:32:02.932Z,10.53
2023-02-18T09:33:03.747Z,10.53
2023-02-18T09:34:04.613Z,10.58
2023-02-18T09:35:05.474Z,10.58
2023-02-18T09:36:06.336Z,10.58
2023-02-18T09:37:07.112Z,10.57
2023-02-18T09:38:07.968Z,10.58
2023-02-18T09:39:08.829Z,10.58
2023-02-18T09:40:09.676Z,10.58
2023-02-18T09:41:10.917Z,10.55
2023-02-18T09:42:11.254Z,10.55
2023-02-18T09:43:12.103Z,10.58
2023-02-18T09:44:12.965Z,10.61
2023-02-18T09:45:13.826Z,10.61
2023-02-18T09:46:14.695Z,10.59
2023-02-18T09:47:15.521Z,10.61
2023-02-18T09:48:16.378Z,10.59
2023-02-18T09:49:17.237Z,10.61
2023-02-18T09:50:18.092Z,10.61
2023-02-18T09:51:18.961Z,10.62
2023-02-18T09:52:19.752Z,10.59
2023-02-18T09:53:20.606Z,10.58
2023-02-18T09:54:21.474Z,10.55
2023-02-18T09:55:22.321Z,10.57
2023-02-18T09:56:23.176Z,10.51
2023-02-18T09:57:24.022Z,10.55
2023-02-18T09:58:24.880Z,10.53
2023-02-18T09:59:25.742Z,10.58
2023-02-18T10:00:26.607Z,10.53
2023-02-18T10:01:27.547Z,10.57
2023-02-18T10:02:28.336Z,10.55
2023-02-18T10:03:29.195Z,10.51
2023-02-18T10:04:30.054Z,10.46
2023-02-18T10:05:30.927Z,10.48
2023-02-18T10:06:31.817Z,10.45
2023-02-18T10:07:32.598Z,10.45
2023-02-18T10:08:33.444Z,10.41
2023-02-18T10:09:34.309Z,10.41
2023-02-18T10:10:35.175Z,10.41
2023-02-18T10:11:36.012Z,10.36
2023-02-18T10:12:36.876Z,10.34
2023-02-18T10:13:37.728Z,10.34
2023-02-18T10:14:38.606Z,10.36
2023-02-18T10:15:39.528Z,10.36
2023-02-18T10:16:40.393Z,10.28
2023-02-18T10:17:41.227Z,10.31
2023-02-18T10:18:42.075Z,10.25
2023-02-18T10:19:43.476Z,10.30
2023-02-18T10:20:43.821Z,10.31
2023-02-18T10:21:44.701Z,10.36
2023-02-18T10:22:45.478Z,10.38
2023-02-18T10:23:46.333Z,10.31
2023-02-18T10:24:47.212Z,10.30
2023-02-18T10:25:48.058Z,10.39
2023-02-18T10:26:48.922Z,10.38
2023-02-18T10:27:49.799Z,10.33
2023-02-18T10:28:50.647Z,10.34
2023-02-18T10:29:51.517Z,10.33
2023-02-18T10:30:52.399Z,10.33
2023-02-18T10:31:53.424Z,10.28
2023-02-18T10:32:53.792Z,10.28
2023-02-18T10:33:54.643Z,10.24
2023-02-18T10:34:55.502Z,10.23
2023-02-18T10:35:56.358Z,10.17
2023-02-18T10:36:57.240Z,10.18
2023-02-18T10:37:58.065Z,10.18
2023-02-18T10:38:58.912Z,10.24
2023-02-18T10:40:00.179Z,10.24
2023-02-18T10:41:00.532Z,10.30
2023-02-18T10:42:01.399Z,10.23
2023-02-18T10:43:02.244Z,10.30
2023-02-18T10:44:03.088Z,10.30
2023-02-18T10:45:04.180Z,10.31
2023-02-18T10:46:04.536Z,10.27
2023-02-18T10:47:05.406Z,10.30
2023-02-18T10:48:06.238Z,10.30
2023-02-18T10:49:07.094Z,10.30
2023-02-18T10:50:08.179Z,10.34
2023-02-18T10:51:08.843Z,10.43
2023-02-18T10:52:09.324Z,10.42
2023-02-18T10:53:10.100Z,10.30
2023-02-18T10:54:10.953Z,10.28
2023-02-18T10:55:12.184Z,10.33
2023-02-18T10:56:12.548Z,10.34
2023-02-18T10:57:13.384Z,10.30
2023-02-18T10:58:14.251Z,10.30
2023-02-18T10:59:15.108Z,10.28
2023-02-18T11:00:15.984Z,10.21
2023-02-18T11:01:16.868Z,10.18
2023-02-18T11:02:17.697Z,10.13
2023-02-18T11:03:18.533Z,10.13
2023-02-18T11:04:19.410Z,10.20
2023-02-18T11:05:20.679Z,10.17
2023-02-18T11:06:21.034Z,10.13
2023-02-18T11:07:21.899Z,10.07
2023-02-18T11:08:22.681Z,10.05
2023-02-18T11:09:23.536Z,10.06
2023-02-18T11:10:24.677Z,10.10
2023-02-18T11:11:25.025Z,10.07
2023-02-18T11:12:25.888Z,10.12
2023-02-18T11:13:26.734Z,10.13
2023-02-18T11:14:27.588Z,10.18
2023-02-18T11:15:28.458Z,10.20
2023-02-18T11:16:29.349Z,10.18
2023-02-18T11:17:30.209Z,10.15
2023-02-18T11:18:31.050Z,10.15
2023-02-18T11:19:31.908Z,10.12
2023-02-18T11:20:33.187Z,10.17
2023-02-18T11:21:33.538Z,10.13
2023-02-18T11:22:34.424Z,10.10
2023-02-18T11:23:35.217Z,10.02
2023-02-18T11:24:36.072Z,10.09
2023-02-18T11:25:37.174Z,10.09
2023-02-18T11:26:37.544Z,10.09
2023-02-18T11:27:38.392Z,10.13
2023-02-18T11:28:39.248Z,10.17
2023-02-18T11:29:40.098Z,10.17
2023-02-18T11:30:41.004Z,10.13
2023-02-18T11:31:41.900Z,10.07
2023-02-18T11:32:42.758Z,10.06
2023-02-18T11:33:43.593Z,10.10
2023-02-18T11:34:44.447Z,10.05
2023-02-18T11:35:45.672Z,10.12
2023-02-18T11:36:46.037Z,10.10
2023-02-18T11:37:46.895Z,10.12
2023-02-18T11:38:47.714Z,10.10
2023-02-18T11:39:48.577Z,10.10
2023-02-18T11:40:49.672Z,10.10
2023-02-18T11:41:50.027Z,10.15
2023-02-18T11:42:50.882Z,10.06
2023-02-18T11:43:51.734Z,10.02
2023-02-18T11:44:52.596Z,9.99
2023-02-18T11:45:53.672Z,10.02
2023-02-18T11:46:54.051Z,10.07
2023-02-18T11:47:54.928Z,10.15
2023-02-18T11:48:55.769Z,10.12
2023-02-18T11:49:56.615Z,10.12
2023-02-18T11:50:57.479Z,10.12
2023-02-18T11:51:58.330Z,10.06
2023-02-18T11:52:59.199Z,10.03
2023-02-18T11:54:00.293Z,10.05
2023-02-18T11:55:00.630Z,10.05
2023-02-18T11:56:01.491Z,10.03
2023-02-18T11:57:02.384Z,10.05
2023-02-18T11:58:03.199Z,10.06
2023-02-18T11:59:04.076Z,10.09
2023-02-18T12:00:04.910Z,10.13
2023-02-18T12:01:06.397Z,10.07
2023-02-18T12:02:06.786Z,10.07
2023-02-18T12:03:07.626Z,10.10
2023-02-18T12:04:08.465Z,10.20
2023-02-18T12:05:09.405Z,10.21
2023-02-18T12:06:10.205Z,10.21
2023-02-18T12:07:11.053Z,10.21
2023-02-18T12:08:11.920Z,10.17
2023-02-18T12:09:12.696Z,10.24
2023-02-18T12:10:13.612Z,10.28
2023-02-18T12:11:14.445Z,10.41
2023-02-18T12:12:15.297Z,10.39
2023-02-18T12:13:16.152Z,10.36
2023-02-18T12:14:17.027Z,10.34
2023-02-18T12:15:17.954Z,10.31
2023-02-18T12:16:18.500Z,10.33
2023-02-18T12:17:19.448Z,10.33
2023-02-18T12:18:20.326Z,10.31
2023-02-18T12:19:21.158Z,10.36
2023-02-18T12:20:22.032Z,10.33
2023-02-18T12:21:23.189Z,10.31
2023-02-18T12:22:23.545Z,10.28
2023-02-18T12:23:24.418Z,10.30
2023-02-18T12:24:25.209Z,10.27
2023-02-18T12:25:26.061Z,10.33
2023-02-18T12:26:27.185Z,10.31
2023-02-18T12:27:27.534Z,10.34
2023-02-18T12:28:28.408Z,10.33
2023-02-18T12:29:29.262Z,10.31
2023-02-18T12:30:30.321Z,10.28
2023-02-18T12:31:30.872Z,10.30
2023-02-18T12:32:31.208Z,10.33
2023-02-18T12:33:32.097Z,10.33
2023-02-18T12:34:32.983Z,10.33
2023-02-18T12:35:33.847Z,10.33
2023-02-18T12:36:35.184Z,10.30
2023-02-18T12:37:35.531Z,10.28
2023-02-18T12:38:36.400Z,10.25
2023-02-18T12:39:37.175Z,10.25
2023-02-18T12:40:38.028Z,10.33
2023-02-18T12:41:39.176Z,10.34
2023-02-18T12:42:39.527Z,10.36
2023-02-18T12:43:40.382Z,10.36
2023-02-18T12:44:43.498Z,10.36
2023-02-18T12:45:42.061Z,10.34
2023-02-18T12:46:42.897Z,10.30
2023-02-18T12:47:43.749Z,10.27
2023-02-18T12:48:44.621Z,10.33
2023-02-18T12:49:45.464Z,10.31
2023-02-18T12:50:46.331Z,10.27
2023-02-18T12:51:47.686Z,10.28
2023-02-18T12:52:48.029Z,10.27
2023-02-18T12:53:49.000Z,10.30
2023-02-18T12:54:49.801Z,10.27
2023-02-18T12:55:50.657Z,10.24
2023-02-18T12:56:51.546Z,10.25
2023-02-18T12:57:52.371Z,10.24
2023-02-18T12:58:53.238Z,10.28
2023-02-18T12:59:54.082Z,10.27
2023-02-18T13:00:54.997Z,10.30
2023-02-18T13:01:55.802Z,10.36
2023-02-18T13:02:56.689Z,10.36